createdAt,value
2018-04-18T00:02:22.061Z,84.03
2018-04-18T00:04:50.554Z,84.37
2018-04-18T00:07:19.733Z,85.14
2018-04-18T00:09:48.201Z,85.16
2018-04-18T00:12:16.636Z,85.16
2018-04-18T00:14:45.793Z,85.54
2018-04-18T00:17:14.196Z,85.51
2018-04-18T00:19:42.582Z,85.76
2018-04-18T00:22:11.041Z,85.55
2018-04-18T00:24:39.434Z,85.60
2018-04-18T00:27:07.840Z,85.46
2018-04-18T00:29:36.214Z,85.26
2018-04-18T00:32:04.598Z,84.86
2018-04-18T00:34:33.006Z,85.52
2018-04-18T00:37:02.187Z,85.66
2018-04-18T00:39:30.569Z,85.72
2018-04-18T00:41:59.001Z,85.87
2018-04-18T00:44:27.401Z,85.77
2018-04-18T00:46:55.786Z,85.78
2018-04-18T00:49:24.172Z,85.87
2018-04-18T00:51:52.569Z,85.11
2018-04-18T00:54:20.975Z,84.35
2018-04-18T00:56:50.153Z,84.10
2018-04-18T00:59:18.545Z,83.49
2018-04-18T01:01:46.958Z,83.48
2018-04-18T01:04:16.225Z,83.95
2018-04-18T01:06:44.633Z,84.59
2018-04-18T01:09:13.785Z,84.24
2018-04-18T01:11:42.181Z,84.11
2018-04-18T01:14:10.578Z,84.42
2018-04-18T01:16:39.058Z,84.49
2018-04-18T01:19:07.509Z,84.72
2018-04-18T01:21:35.901Z,85.08
2018-04-18T01:24:04.287Z,85.45
2018-04-18T01:26:33.607Z,85.74
2018-04-18T01:29:01.982Z,86.02
2018-04-18T01:31:30.381Z,86.26
2018-04-18T01:33:58.786Z,86.57
2018-04-18T01:36:27.190Z,86.54
2018-04-18T01:38:55.614Z,86.50
2018-04-18T01:41:23.989Z,86.38
2018-04-18T01:43:53.241Z,86.63
2018-04-18T01:46:22.471Z,86.64
2018-04-18T01:48:50.864Z,86.40
2018-04-18T01:51:19.262Z,86.08
2018-04-18T01:53:47.677Z,85.51
2018-04-18T01:56:16.091Z,85.24
2018-04-18T01:58:45.261Z,84.88
2018-04-18T02:01:13.662Z,84.62
2018-04-18T02:03:42.794Z,84.39
2018-04-18T02:06:11.189Z,84.71
2018-04-18T02:08:39.641Z,85.25
2018-04-18T02:11:08.789Z,85.20
2018-04-18T02:13:37.162Z,85.70
2018-04-18T02:16:05.528Z,85.67
2018-04-18T02:18:33.933Z,85.97
2018-04-18T02:21:02.334Z,86.19
2018-04-18T02:23:30.725Z,86.44
2018-04-18T02:25:59.126Z,86.49
2018-04-18T02:28:27.553Z,85.77
2018-04-18T02:30:55.922Z,86.09
2018-04-18T02:33:24.277Z,86.12
2018-04-18T02:35:53.474Z,86.06
2018-04-18T02:38:21.859Z,86.20
2018-04-18T02:40:50.221Z,86.64
2018-04-18T02:43:18.641Z,86.63
2018-04-18T02:45:47.779Z,86.62
2018-04-18T02:48:16.195Z,85.86
2018-04-18T02:50:44.593Z,85.54
2018-04-18T02:53:13.733Z,86.13
2018-04-18T02:55:42.113Z,86.45
2018-04-18T02:58:10.490Z,86.46
2018-04-18T03:00:38.871Z,86.61
2018-04-18T03:03:07.251Z,85.99
2018-04-18T03:05:35.710Z,86.03
2018-04-18T03:08:04.851Z,86.34
2018-04-18T03:10:33.225Z,86.24
2018-04-18T03:13:01.605Z,86.52
2018-04-18T03:15:29.994Z,86.56
2018-04-18T03:17:58.388Z,86.62
2018-04-18T03:20:26.743Z,86.86
2018-04-18T03:22:55.124Z,86.82
2018-04-18T03:25:24.278Z,87.22
2018-04-18T03:27:52.645Z,86.87
2018-04-18T03:30:21.033Z,86.99
2018-04-18T03:32:49.393Z,86.76
2018-04-18T03:35:17.763Z,86.23
2018-04-18T03:37:46.177Z,86.99
2018-04-18T03:40:14.534Z,87.09
2018-04-18T03:42:42.917Z,87.34
2018-04-18T03:45:11.288Z,87.39
2018-04-18T03:47:39.750Z,87.49
2018-04-18T03:50:08.383Z,87.58
2018-04-18T03:52:36.768Z,87.68
2018-04-18T03:55:05.143Z,87.94
2018-04-18T03:57:33.522Z,87.98
2018-04-18T04:00:01.886Z,87.74
2018-04-18T04:02:31.054Z,87.38
2018-04-18T04:04:59.497Z,87.63
2018-04-18T04:07:27.969Z,87.64
2018-04-18T04:09:56.368Z,87.42
2018-04-18T04:12:24.749Z,87.59
2018-04-18T04:14:53.137Z,87.77
2018-04-18T04:17:39.374Z,87.85
2018-04-18T04:20:25.433Z,88.12
2018-04-18T04:23:12.167Z,88.63
2018-04-18T04:25:40.533Z,88.99
2018-04-18T04:28:08.939Z,88.92
2018-04-18T04:30:37.466Z,89.29
2018-04-18T04:33:05.847Z,89.58
2018-04-18T04:35:34.298Z,89.62
2018-04-18T04:38:03.453Z,89.66
2018-04-18T04:40:31.860Z,89.53
2018-04-18T04:43:00.313Z,89.54
2018-04-18T04:45:28.701Z,89.73
2018-04-18T04:47:57.066Z,89.81
2018-04-18T04:50:25.426Z,89.96
2018-04-18T04:52:54.627Z,89.83
2018-04-18T04:55:23.778Z,90.05
2018-04-18T04:57:52.147Z,89.97
2018-04-18T05:00:20.525Z,90.09
2018-04-18T05:02:48.914Z,90.04
2018-04-18T05:05:17.286Z,90.09
2018-04-18T05:07:45.673Z,90.13
2018-04-18T05:10:14.043Z,89.95
2018-04-18T05:12:42.439Z,89.95
2018-04-18T05:15:10.822Z,89.97
2018-04-18T05:17:39.255Z,90.02
2018-04-18T05:20:07.626Z,89.72
2018-04-18T05:22:36.004Z,89.51
2018-04-18T05:25:04.391Z,89.62
2018-04-18T05:27:32.790Z,89.43
2018-04-18T05:30:01.949Z,89.42
2018-04-18T05:32:31.161Z,89.36
2018-04-18T05:34:59.564Z,89.14
2018-04-18T05:37:27.982Z,88.19
2018-04-18T05:39:56.506Z,87.54
2018-04-18T05:42:24.915Z,86.97
2018-04-18T05:44:53.324Z,86.18
2018-04-18T05:47:22.531Z,85.49
2018-04-18T05:49:50.965Z,84.43
2018-04-18T05:52:19.416Z,82.84
2018-04-18T05:54:47.831Z,80.52
2018-04-18T05:57:16.233Z,80.36
2018-04-18T05:59:44.641Z,77.95
2018-04-18T06:02:14.750Z,77.53
2018-04-18T06:04:43.139Z,76.93
2018-04-18T06:07:12.293Z,75.64
2018-04-18T06:09:40.710Z,74.81
2018-04-18T06:12:09.169Z,73.96
2018-04-18T06:14:37.620Z,72.85
2018-04-18T06:17:06.029Z,71.58
2018-04-18T06:19:34.430Z,70.18
2018-04-18T06:22:02.819Z,66.31
2018-04-18T06:24:31.225Z,63.46
2018-04-18T06:26:59.637Z,61.68
2018-04-18T06:29:28.009Z,60.47
2018-04-18T06:31:57.176Z,61.63
2018-04-18T06:34:25.589Z,58.98
2018-04-18T06:36:54.774Z,57.19
2018-04-18T06:39:23.197Z,55.77
2018-04-18T06:41:51.593Z,54.58
2018-04-18T06:44:19.989Z,54.58
2018-04-18T06:46:48.371Z,54.28
2018-04-18T06:49:16.757Z,53.86
2018-04-18T06:51:45.170Z,53.30
2018-04-18T06:54:13.559Z,50.18
2018-04-18T06:56:42.769Z,52.50
2018-04-18T06:59:11.934Z,48.98
2018-04-18T07:01:40.317Z,49.83
2018-04-18T07:04:09.477Z,45.13
2018-04-18T07:06:37.858Z,45.00
2018-04-18T07:09:06.973Z,44.07
2018-04-18T07:11:35.369Z,43.93
2018-04-18T07:14:03.769Z,42.94
2018-04-18T07:16:32.159Z,41.90
2018-04-18T07:19:00.586Z,42.71
2018-04-18T07:21:29.742Z,42.54
2018-04-18T07:23:58.176Z,42.34
2018-04-18T07:26:26.560Z,41.43
2018-04-18T07:28:54.949Z,41.27
2018-04-18T07:31:23.337Z,41.88
2018-04-18T07:33:51.795Z,41.50
2018-04-18T07:36:20.967Z,39.70
2018-04-18T07:38:49.353Z,37.82
2018-04-18T07:41:17.773Z,37.23
2018-04-18T07:43:46.946Z,39.09
2018-04-18T07:46:15.372Z,37.20
2018-04-18T07:48:43.759Z,36.72
2018-04-18T07:51:12.157Z,39.27
2018-04-18T07:53:40.549Z,39.39
2018-04-18T07:56:09.737Z,36.96
2018-04-18T07:58:38.121Z,36.86
2018-04-18T08:01:06.510Z,38.19
2018-04-18T08:03:34.946Z,39.62
2018-04-18T08:06:04.182Z,35.67
2018-04-18T08:08:32.665Z,34.38
2018-04-18T08:11:01.034Z,35.96
2018-04-18T08:13:29.409Z,36.14
2018-04-18T08:15:58.599Z,33.73
2018-04-18T08:18:27.762Z,34.57
2018-04-18T08:20:56.153Z,34.39
2018-04-18T08:23:24.530Z,36.49
2018-04-18T08:25:52.935Z,33.05
2018-04-18T08:28:21.342Z,35.09
2018-04-18T08:30:50.488Z,34.68
2018-04-18T08:33:18.887Z,34.60
2018-04-18T08:35:47.307Z,33.87
2018-04-18T08:38:15.718Z,33.34
2018-04-18T08:40:44.102Z,35.22
2018-04-18T08:43:12.478Z,34.04
2018-04-18T08:45:40.859Z,32.28
2018-04-18T08:48:09.268Z,33.66
2018-04-18T08:50:37.705Z,33.61
2018-04-18T08:53:06.838Z,33.35
2018-04-18T08:55:35.306Z,33.54
2018-04-18T08:58:03.802Z,33.38
2018-04-18T09:00:32.204Z,32.07
2018-04-18T09:03:00.584Z,31.89
2018-04-18T09:05:29.038Z,33.38
2018-04-18T09:07:57.438Z,31.10
2018-04-18T09:10:25.872Z,30.54
2018-04-18T09:12:54.282Z,32.03
2018-04-18T09:15:23.707Z,27.91
2018-04-18T09:17:52.134Z,31.42
2018-04-18T09:20:20.677Z,32.85
2018-04-18T09:22:49.074Z,30.81
2018-04-18T09:25:17.481Z,32.42
2018-04-18T09:27:45.877Z,33.28
2018-04-18T09:30:14.285Z,32.40
2018-04-18T09:32:43.459Z,31.10
2018-04-18T09:35:11.872Z,31.43
2018-04-18T09:37:41.115Z,33.40
2018-04-18T09:40:09.497Z,32.21
2018-04-18T09:42:37.915Z,30.30
2018-04-18T09:45:06.384Z,31.09
2018-04-18T09:47:34.734Z,31.15
2018-04-18T09:50:03.120Z,31.69
2018-04-18T09:52:31.573Z,29.31
2018-04-18T09:55:00.722Z,30.39
2018-04-18T09:57:29.129Z,30.00
2018-04-18T09:59:57.533Z,30.83
2018-04-18T10:02:29.394Z,29.73
2018-04-18T10:05:03.074Z,31.34
2018-04-18T10:07:31.515Z,29.67
2018-04-18T10:09:59.905Z,29.22
2018-04-18T10:12:28.366Z,30.74
2018-04-18T10:14:57.593Z,31.33
2018-04-18T10:17:25.977Z,30.61
2018-04-18T10:19:54.377Z,31.12
2018-04-18T10:22:22.762Z,32.04
2018-04-18T10:24:51.188Z,30.11
2018-04-18T10:27:20.353Z,31.61
2018-04-18T10:29:48.773Z,31.35
2018-04-18T10:32:17.161Z,28.92
2018-04-18T10:34:46.542Z,30.04
2018-04-18T10:37:15.687Z,29.61
2018-04-18T10:39:44.095Z,28.72
2018-04-18T10:42:12.533Z,29.73
2018-04-18T10:44:40.913Z,30.32
2018-04-18T10:47:09.297Z,29.24
2018-04-18T10:49:37.769Z,29.47
2018-04-18T10:52:06.277Z,28.37
2018-04-18T10:54:35.481Z,27.10
2018-04-18T10:57:03.862Z,26.49
2018-04-18T10:59:33.018Z,28.65
2018-04-18T11:02:01.420Z,27.59
2018-04-18T11:04:29.820Z,27.29
2018-04-18T11:06:59.013Z,27.65
2018-04-18T11:09:27.416Z,27.94
2018-04-18T11:11:56.600Z,28.25
2018-04-18T11:14:24.999Z,29.12
2018-04-18T11:16:54.147Z,27.10
2018-04-18T11:19:22.550Z,27.95
2018-04-18T11:21:51.044Z,28.97
2018-04-18T11:24:19.498Z,29.29
2018-04-18T11:26:47.915Z,26.10
2018-04-18T11:29:16.316Z,25.68
2018-04-18T11:31:45.482Z,27.77
2018-04-18T11:34:13.948Z,27.35
2018-04-18T11:36:42.356Z,24.89
2018-04-18T11:39:10.777Z,24.70
2018-04-18T11:41:39.925Z,27.69
2018-04-18T11:44:08.389Z,26.41
2018-04-18T11:46:36.781Z,24.50
2018-04-18T11:49:05.199Z,22.16
2018-04-18T11:51:33.591Z,28.43
2018-04-18T11:54:02.003Z,26.28
2018-04-18T11:56:31.169Z,26.46
2018-04-18T11:58:59.626Z,28.34
2018-04-18T12:01:28.038Z,26.64
2018-04-18T12:03:56.416Z,27.72
2018-04-18T12:06:24.817Z,25.97
2018-04-18T12:08:53.210Z,25.88
2018-04-18T12:11:21.681Z,25.70
2018-04-18T12:13:50.085Z,25.87
2018-04-18T12:16:19.242Z,27.14
2018-04-18T12:18:47.659Z,26.68
2018-04-18T12:21:16.055Z,25.55
2018-04-18T12:23:45.236Z,25.37
2018-04-18T12:26:13.622Z,26.79
2018-04-18T12:28:42.059Z,27.38
2018-04-18T12:31:10.459Z,26.40
2018-04-18T12:33:38.893Z,26.60
2018-04-18T12:36:08.098Z,28.46
2018-04-18T12:38:37.281Z,27.53
2018-04-18T12:41:05.706Z,26.99
2018-04-18T12:43:34.094Z,26.37
2018-04-18T12:46:02.527Z,27.18
2018-04-18T12:48:30.922Z,27.57
2018-04-18T12:51:00.239Z,27.51
2018-04-18T12:53:29.475Z,27.08
2018-04-18T12:55:57.936Z,26.85
2018-04-18T12:58:26.361Z,28.04
2018-04-18T13:00:54.755Z,28.68
2018-04-18T13:03:23.165Z,26.79
2018-04-18T13:05:52.337Z,27.86
2018-04-18T13:08:20.729Z,27.45
2018-04-18T13:10:49.114Z,26.62
2018-04-18T13:13:17.528Z,27.96
2018-04-18T13:15:46.055Z,27.41
2018-04-18T13:18:14.446Z,28.43
2018-04-18T13:20:42.922Z,25.86
2018-04-18T13:23:11.316Z,26.53
2018-04-18T13:25:40.485Z,25.68
2018-04-18T13:28:08.872Z,27.94
2018-04-18T13:30:37.289Z,25.53
2018-04-18T13:33:05.681Z,25.63
2018-04-18T13:35:34.062Z,25.64
2018-04-18T13:38:02.483Z,26.10
2018-04-18T13:40:31.649Z,27.05
2018-04-18T13:43:00.765Z,24.07
2018-04-18T13:45:29.189Z,25.09
2018-04-18T13:47:57.665Z,26.27
2018-04-18T13:50:26.015Z,24.53
2018-04-18T13:52:54.431Z,25.89
2018-04-18T13:55:22.921Z,26.62
2018-04-18T13:57:51.324Z,25.56
2018-04-18T14:00:19.710Z,25.75
2018-04-18T14:02:48.101Z,25.95
2018-04-18T14:05:16.592Z,26.38
2018-04-18T14:07:45.045Z,25.19
2018-04-18T14:10:13.430Z,24.61
2018-04-18T14:12:41.851Z,25.35
2018-04-18T14:15:11.136Z,24.03
2018-04-18T14:17:39.522Z,24.60
2018-04-18T14:20:08.198Z,24.87
2018-04-18T14:22:36.626Z,25.25
2018-04-18T14:25:05.038Z,24.41
2018-04-18T14:27:34.185Z,24.85
2018-04-18T14:30:02.570Z,25.34
2018-04-18T14:32:30.954Z,22.57
2018-04-18T14:34:59.469Z,24.67
2018-04-18T14:37:27.881Z,23.35
2018-04-18T14:39:56.289Z,23.86
2018-04-18T14:42:24.699Z,22.13
2018-04-18T14:44:53.104Z,22.10
2018-04-18T14:47:21.507Z,24.10
2018-04-18T14:49:50.722Z,20.47
2018-04-18T14:52:19.174Z,22.14
2018-04-18T14:54:47.573Z,21.40
2018-04-18T14:57:16.761Z,21.85
2018-04-18T14:59:45.150Z,21.83
2018-04-18T15:02:14.330Z,20.72
2018-04-18T15:04:42.740Z,19.64
2018-04-18T15:07:11.929Z,22.90
2018-04-18T15:09:40.354Z,21.58
2018-04-18T15:12:08.765Z,22.26
2018-04-18T15:14:37.180Z,21.90
2018-04-18T15:17:05.591Z,23.44
2018-04-18T15:19:33.989Z,21.20
2018-04-18T15:22:02.401Z,20.42
2018-04-18T15:24:31.597Z,20.32
2018-04-18T15:26:59.991Z,21.18
2018-04-18T15:29:28.371Z,21.70
2018-04-18T15:31:56.751Z,21.13
2018-04-18T15:34:25.225Z,22.99
2018-04-18T15:36:53.679Z,22.80
2018-04-18T15:39:22.878Z,22.88
2018-04-18T15:41:52.030Z,22.78
2018-04-18T15:44:20.406Z,22.70
2018-04-18T15:46:48.785Z,22.67
2018-04-18T15:49:17.174Z,23.10
2018-04-18T15:51:45.572Z,21.54
2018-04-18T15:54:14.086Z,22.47
2018-04-18T15:56:42.553Z,23.88
2018-04-18T15:59:10.953Z,24.09
2018-04-18T16:01:40.125Z,24.40
2018-04-18T16:04:08.556Z,23.64
2018-04-18T16:06:36.977Z,23.59
2018-04-18T16:09:05.346Z,23.96
2018-04-18T16:11:33.787Z,25.37
2018-04-18T16:14:02.209Z,24.07
2018-04-18T16:16:30.601Z,23.35
2018-04-18T16:18:59.009Z,23.14
2018-04-18T16:21:27.422Z,23.69
2018-04-18T16:23:55.816Z,24.36
2018-04-18T16:26:25.059Z,26.14
2018-04-18T16:28:53.470Z,24.70
2018-04-18T16:31:21.859Z,25.39
2018-04-18T16:33:50.249Z,26.11
2018-04-18T16:36:18.658Z,25.86
2018-04-18T16:38:47.854Z,26.32
2018-04-18T16:41:17.017Z,26.53
2018-04-18T16:43:45.414Z,27.92
2018-04-18T16:46:13.951Z,29.26
2018-04-18T16:48:42.445Z,29.24
2018-04-18T16:51:10.846Z,30.18
2018-04-18T16:53:39.223Z,30.51
2018-04-18T16:56:07.622Z,29.90
2018-04-18T16:58:36.058Z,30.85
2018-04-18T17:01:04.664Z,30.67
2018-04-18T17:03:33.061Z,31.33
2018-04-18T17:06:01.453Z,31.28
2018-04-18T17:08:30.597Z,30.47
2018-04-18T17:10:59.742Z,31.29
2018-04-18T17:13:28.175Z,30.16
2018-04-18T17:15:56.549Z,31.05
2018-04-18T17:18:24.976Z,30.13
2018-04-18T17:20:53.467Z,31.48
2018-04-18T17:23:21.930Z,30.19
2018-04-18T17:25:51.150Z,31.05
2018-04-18T17:28:19.540Z,30.12
2018-04-18T17:30:47.982Z,30.11
2018-04-18T17:33:16.399Z,30.63
2018-04-18T17:35:44.843Z,30.72
2018-04-18T17:38:13.219Z,31.11
2018-04-18T17:40:41.628Z,30.44
2018-04-18T17:43:10.786Z,31.67
2018-04-18T17:45:39.195Z,31.59
2018-04-18T17:48:07.590Z,31.22
2018-04-18T17:50:36.773Z,30.66
2018-04-18T17:53:05.146Z,30.87
2018-04-18T17:55:33.521Z,30.71
2018-04-18T17:58:01.936Z,32.58
2018-04-18T18:00:30.357Z,32.49
2018-04-18T18:02:58.757Z,32.46
2018-04-18T18:05:27.143Z,33.27
2018-04-18T18:07:55.558Z,34.69
2018-04-18T18:10:23.921Z,33.78
2018-04-18T18:12:52.319Z,34.96
2018-04-18T18:15:20.802Z,35.83
2018-04-18T18:17:49.223Z,36.94
2018-04-18T18:20:18.392Z,35.84
2018-04-18T18:22:46.774Z,37.59
2018-04-18T18:25:15.162Z,37.16
2018-04-18T18:27:43.552Z,38.48
2018-04-18T18:30:11.954Z,38.67
2018-04-18T18:32:41.154Z,38.76
2018-04-18T18:35:10.298Z,38.96
2018-04-18T18:37:38.693Z,40.28
2018-04-18T18:40:07.093Z,42.14
2018-04-18T18:42:35.490Z,42.98
2018-04-18T18:45:03.990Z,43.63
2018-04-18T18:47:33.158Z,45.01
2018-04-18T18:50:01.542Z,45.12
2018-04-18T18:52:30.092Z,46.16
2018-04-18T18:54:59.492Z,46.57
2018-04-18T18:57:27.919Z,47.35
2018-04-18T18:59:56.336Z,48.76
2018-04-18T19:02:24.702Z,47.24
2018-04-18T19:04:53.093Z,47.83
2018-04-18T19:07:21.484Z,48.43
2018-04-18T19:09:50.656Z,48.97
2018-04-18T19:12:19.207Z,48.94
2018-04-18T19:14:47.613Z,49.61
2018-04-18T19:17:16.000Z,50.25
2018-04-18T19:19:44.428Z,50.97
2018-04-18T19:22:13.585Z,51.45
2018-04-18T19:24:41.974Z,51.88
2018-04-18T19:27:10.395Z,52.07
2018-04-18T19:29:39.570Z,52.51
2018-04-18T19:32:07.958Z,53.47
2018-04-18T19:34:36.394Z,53.68
2018-04-18T19:37:04.812Z,54.40
2018-04-18T19:39:33.216Z,54.28
2018-04-18T19:42:01.622Z,54.65
2018-04-18T19:44:30.787Z,55.67
2018-04-18T19:46:59.203Z,56.51
2018-04-18T19:49:29.370Z,56.89
2018-04-18T19:51:57.773Z,55.62
2018-04-18T19:54:26.236Z,55.99
2018-04-18T19:56:54.623Z,55.98
2018-04-18T19:59:23.040Z,56.06
2018-04-18T20:01:51.439Z,56.41
2018-04-18T20:04:20.610Z,56.02
2018-04-18T20:06:48.991Z,55.39
2018-04-18T20:09:17.389Z,55.81
2018-04-18T20:11:45.777Z,55.68
2018-04-18T20:14:14.934Z,56.01
2018-04-18T20:16:43.370Z,56.39
2018-04-18T20:19:11.732Z,56.52
2018-04-18T20:21:40.153Z,56.60
2018-04-18T20:24:08.565Z,56.72
2018-04-18T20:26:36.946Z,57.43
2018-04-18T20:29:05.393Z,57.90
2018-04-18T20:31:34.598Z,59.13
2018-04-18T20:34:03.746Z,58.59
2018-04-18T20:36:36.976Z,59.29
2018-04-18T20:39:05.363Z,60.19
2018-04-18T20:41:34.535Z,59.80
2018-04-18T20:44:02.947Z,59.74
2018-04-18T20:46:32.089Z,60.45
2018-04-18T20:49:00.487Z,61.21
2018-04-18T20:51:28.908Z,60.98
2018-04-18T20:53:57.294Z,61.44
2018-04-18T20:56:26.474Z,61.25
2018-04-18T20:58:54.862Z,60.71
2018-04-18T21:01:23.272Z,60.96
2018-04-18T21:03:52.431Z,61.05
2018-04-18T21:06:20.862Z,60.95
2018-04-18T21:08:50.086Z,61.86
2018-04-18T21:11:18.487Z,62.60
2018-04-18T21:13:46.929Z,61.65
2018-04-18T21:16:15.270Z,62.50
2018-04-18T21:18:43.681Z,62.34
2018-04-18T21:21:12.067Z,62.88
2018-04-18T21:23:40.555Z,62.85
2018-04-18T21:26:09.850Z,62.97
2018-04-18T21:28:38.246Z,63.25
2018-04-18T21:31:07.450Z,63.84
2018-04-18T21:33:36.688Z,64.40
2018-04-18T21:36:05.127Z,64.41
2018-04-18T21:38:34.284Z,64.86
2018-04-18T21:41:02.681Z,64.99
2018-04-18T21:43:31.090Z,65.39
2018-04-18T21:45:59.498Z,65.30
2018-04-18T21:48:28.686Z,65.47
2018-04-18T21:50:57.881Z,65.81
2018-04-18T21:53:27.076Z,66.09
2018-04-18T21:55:55.458Z,66.37
2018-04-18T21:58:23.900Z,67.09
2018-04-18T22:00:52.312Z,67.58
2018-04-18T22:03:22.312Z,68.02
2018-04-18T22:05:50.718Z,68.87
2018-04-18T22:08:19.104Z,68.64
2018-04-18T22:10:47.498Z,68.77
2018-04-18T22:13:15.937Z,69.07
2018-04-18T22:15:44.334Z,69.51
2018-04-18T22:18:12.807Z,69.47
2018-04-18T22:20:41.197Z,70.09
2018-04-18T22:23:10.364Z,70.50
2018-04-18T22:25:38.770Z,70.25
2018-04-18T22:28:07.149Z,70.27
2018-04-18T22:30:35.533Z,70.33
2018-04-18T22:33:03.937Z,70.73
2018-04-18T22:35:32.426Z,70.80
2018-04-18T22:38:00.829Z,70.88
2018-04-18T22:40:29.237Z,69.69
2018-04-18T22:42:57.661Z,70.15
2018-04-18T22:45:26.084Z,69.18
2018-04-18T22:47:54.683Z,69.75
2018-04-18T22:50:23.837Z,69.88
2018-04-18T22:52:52.234Z,69.03
2018-04-18T22:55:21.385Z,69.03
2018-04-18T22:57:49.757Z,69.03
2018-04-18T23:00:23.570Z,69.07
2018-04-18T23:02:52.065Z,68.08
2018-04-18T23:05:20.505Z,67.92
2018-04-18T23:07:48.901Z,68.10
2018-04-18T23:10:17.293Z,68.74
2018-04-18T23:12:46.458Z,69.41
2018-04-18T23:15:14.907Z,69.76
2018-04-18T23:17:43.306Z,70.47
2018-04-18T23:20:12.628Z,70.91
2018-04-18T23:22:41.020Z,71.43
2018-04-18T23:25:09.401Z,72.35
2018-04-18T23:27:38.565Z,72.31
2018-04-18T23:30:06.966Z,72.51
2018-04-18T23:32:35.377Z,72.62
2018-04-18T23:35:03.797Z,72.76
2018-04-18T23:37:32.935Z,73.20
2018-04-18T23:40:01.354Z,73.12
2018-04-18T23:42:29.730Z,73.53
2018-04-18T23:44:58.934Z,74.21
2018-04-18T23:47:27.315Z,74.14
2018-04-18T23:49:55.697Z,74.58
2018-04-18T23:52:24.085Z,74.95
2018-04-18T23:54:52.490Z,75.04
2018-04-18T23:57:21.641Z,74.80
2018-04-18T23:59:50.763Z,74.96
